createdAt,value
2022-08-16T00:01:21.060Z,16.70
2022-08-16T00:03:48.118Z,16.70
2022-08-16T00:06:15.766Z,16.70
2022-08-16T00:08:42.468Z,16.70
2022-08-16T00:11:15.846Z,16.60
2022-08-16T00:13:53.876Z,16.60
2022-08-16T00:17:00.548Z,16.60
2022-08-16T00:19:19.186Z,16.50
2022-08-16T00:21:46.591Z,16.60
2022-08-16T00:24:32.562Z,16.60
2022-08-16T00:27:01.865Z,16.60
2022-08-16T00:29:30.131Z,16.60
2022-08-16T00:32:00.955Z,16.70
2022-08-16T00:34:41.250Z,16.70
2022-08-16T00:37:11.964Z,16.70
2022-08-16T00:39:44.838Z,16.60
2022-08-16T00:42:11.746Z,16.60
2022-08-16T00:44:41.489Z,16.60
2022-08-16T00:47:16.736Z,16.60
2022-08-16T00:49:44.793Z,16.60
2022-08-16T00:52:30.646Z,16.60
2022-08-16T00:54:59.842Z,16.50
2022-08-16T00:57:44.521Z,16.60
2022-08-16T01:00:20.205Z,16.60
2022-08-16T01:02:51.024Z,16.60
2022-08-16T01:05:19.525Z,16.60
2022-08-16T01:07:53.456Z,16.50
2022-08-16T01:10:31.986Z,16.60
2022-08-16T01:13:06.562Z,16.60
2022-08-16T01:15:37.677Z,16.50
2022-08-16T01:18:39.324Z,16.50
2022-08-16T01:21:33.759Z,16.50
2022-08-16T01:24:52.437Z,16.60
2022-08-16T01:27:38.858Z,16.60
2022-08-16T01:30:20.085Z,16.60
2022-08-16T01:33:01.224Z,16.60
2022-08-16T01:35:56.129Z,16.60
2022-08-16T01:38:28.323Z,16.50
2022-08-16T01:41:08.603Z,16.50
2022-08-16T01:43:39.003Z,16.50
2022-08-16T01:46:29.747Z,16.50
2022-08-16T01:49:07.868Z,16.50
2022-08-16T01:51:34.885Z,16.50
2022-08-16T01:54:08.123Z,16.40
2022-08-16T01:56:40.173Z,16.40
2022-08-16T01:59:15.926Z,16.30
2022-08-16T02:01:49.534Z,16.40
2022-08-16T02:04:48.594Z,16.40
2022-08-16T02:07:08.945Z,16.40
2022-08-16T02:09:39.021Z,16.40
2022-08-16T02:12:39.806Z,16.40
2022-08-16T02:14:56.108Z,16.40
2022-08-16T02:17:24.858Z,16.40
2022-08-16T02:19:59.164Z,16.40
2022-08-16T02:22:34.945Z,16.40
2022-08-16T02:25:09.979Z,16.40
2022-08-16T02:27:41.482Z,16.40
2022-08-16T02:30:36.794Z,16.40
2022-08-16T02:33:05.608Z,16.40
2022-08-16T02:35:34.766Z,16.40
2022-08-16T02:38:20.452Z,16.30
2022-08-16T02:40:48.418Z,16.30
2022-08-16T02:43:16.003Z,16.40
2022-08-16T02:45:43.837Z,16.40
2022-08-16T02:48:30.596Z,16.30
2022-08-16T02:51:06.210Z,16.30
2022-08-16T02:53:36.784Z,16.30
2022-08-16T02:56:05.571Z,16.30
2022-08-16T02:58:37.178Z,16.30
2022-08-16T03:01:07.151Z,16.30
2022-08-16T03:04:46.323Z,16.30
2022-08-16T03:06:42.171Z,16.30
2022-08-16T03:09:19.787Z,16.30
2022-08-16T03:11:50.630Z,16.40
2022-08-16T03:14:20.911Z,16.30
2022-08-16T03:16:58.585Z,16.30
2022-08-16T03:19:59.440Z,16.30
2022-08-16T03:22:19.252Z,16.20
2022-08-16T03:24:57.223Z,16.20
2022-08-16T03:27:30.611Z,16.10
2022-08-16T03:30:17.516Z,16.10
2022-08-16T03:32:51.630Z,16.10
2022-08-16T03:35:22.577Z,16.10
2022-08-16T03:38:01.535Z,16.10
2022-08-16T03:40:35.458Z,16.10
2022-08-16T03:43:20.501Z,16.10
2022-08-16T03:45:53.445Z,16.10
2022-08-16T03:48:36.995Z,16.10
2022-08-16T03:51:14.002Z,16.10
2022-08-16T03:54:00.900Z,16.10
2022-08-16T03:56:30.342Z,16.00
2022-08-16T03:58:58.372Z,16.00
2022-08-16T04:01:29.868Z,16.00
2022-08-16T04:03:57.601Z,16.00
2022-08-16T04:06:24.925Z,16.00
2022-08-16T04:08:51.889Z,16.10
2022-08-16T04:11:18.826Z,16.00
2022-08-16T04:13:59.995Z,16.00
2022-08-16T04:16:37.896Z,16.00
2022-08-16T04:19:31.683Z,16.00
2022-08-16T04:22:00.665Z,16.00
2022-08-16T04:24:30.860Z,16.00
2022-08-16T04:26:58.712Z,16.10
2022-08-16T04:29:27.802Z,16.00
2022-08-16T04:32:11.113Z,16.00
2022-08-16T04:34:41.314Z,16.00
2022-08-16T04:37:09.782Z,15.90
2022-08-16T04:39:47.311Z,15.90
2022-08-16T04:42:26.335Z,16.10
2022-08-16T04:44:58.308Z,15.90
2022-08-16T04:47:33.187Z,15.90
2022-08-16T04:50:06.915Z,15.90
2022-08-16T04:52:36.058Z,15.90
2022-08-16T04:55:07.598Z,15.90
2022-08-16T04:57:36.859Z,15.90
2022-08-16T05:00:32.867Z,15.80
2022-08-16T05:02:58.624Z,15.90
2022-08-16T05:05:32.990Z,15.90
2022-08-16T05:08:28.482Z,15.80
2022-08-16T05:11:05.501Z,15.90
2022-08-16T05:13:40.379Z,15.80
2022-08-16T05:16:11.695Z,15.80
2022-08-16T05:18:39.537Z,15.80
2022-08-16T05:21:11.306Z,15.90
2022-08-16T05:23:45.458Z,15.90
2022-08-16T05:26:20.483Z,15.90
2022-08-16T05:28:55.767Z,15.90
2022-08-16T05:31:29.281Z,16.00
2022-08-16T05:33:58.086Z,16.00
2022-08-16T05:36:36.453Z,16.00
2022-08-16T05:40:09.053Z,16.10
2022-08-16T05:42:40.769Z,16.20
2022-08-16T05:45:21.400Z,16.30
2022-08-16T05:48:00.205Z,16.30
2022-08-16T05:50:37.768Z,16.40
2022-08-16T05:53:08.500Z,16.60
2022-08-16T05:55:43.814Z,16.60
2022-08-16T05:58:31.710Z,16.60
2022-08-16T06:00:57.435Z,16.70
2022-08-16T06:03:25.845Z,16.80
2022-08-16T06:06:00.728Z,16.90
2022-08-16T06:08:32.015Z,16.80
2022-08-16T06:11:13.334Z,16.80
2022-08-16T06:13:43.407Z,16.60
2022-08-16T06:16:18.370Z,16.50
2022-08-16T06:18:46.558Z,16.50
2022-08-16T06:21:22.714Z,16.30
2022-08-16T06:23:54.365Z,16.40
2022-08-16T06:26:22.915Z,16.30
2022-08-16T06:28:50.278Z,16.30
2022-08-16T06:31:25.669Z,16.40
2022-08-16T06:33:55.209Z,16.40
2022-08-16T06:36:24.023Z,16.50
2022-08-16T06:39:06.289Z,16.80
2022-08-16T06:41:51.921Z,16.90
2022-08-16T06:44:39.286Z,17.10
2022-08-16T06:47:17.194Z,17.20
2022-08-16T06:49:54.046Z,17.10
2022-08-16T06:52:58.181Z,17.10
2022-08-16T06:55:12.970Z,17.20
2022-08-16T06:57:44.778Z,17.40
2022-08-16T07:00:17.552Z,17.50
2022-08-16T07:02:59.605Z,17.70
2022-08-16T07:05:41.446Z,17.90
2022-08-16T07:08:15.133Z,18.10
2022-08-16T07:10:46.720Z,18.30
2022-08-16T07:13:26.663Z,18.30
2022-08-16T07:16:04.118Z,18.30
2022-08-16T07:18:33.371Z,18.40
2022-08-16T07:21:02.190Z,18.50
2022-08-16T07:23:37.198Z,18.80
2022-08-16T07:26:24.953Z,18.70
2022-08-16T07:28:53.583Z,18.90
2022-08-16T07:31:21.537Z,18.80
2022-08-16T07:33:53.386Z,18.80
2022-08-16T07:36:30.902Z,19.00
2022-08-16T07:38:58.881Z,19.10
2022-08-16T07:41:28.464Z,19.10
2022-08-16T07:44:00.001Z,19.10
2022-08-16T07:46:39.492Z,19.00
2022-08-16T07:49:13.536Z,19.10
2022-08-16T07:51:42.381Z,19.10
2022-08-16T07:54:16.999Z,19.40
2022-08-16T07:56:50.293Z,19.50
2022-08-16T07:59:17.396Z,19.40
2022-08-16T08:01:44.608Z,19.60
2022-08-16T08:04:13.298Z,19.60
2022-08-16T08:06:42.724Z,19.80
2022-08-16T08:09:15.336Z,19.80
2022-08-16T08:12:00.864Z,19.90
2022-08-16T08:14:34.137Z,20.00
2022-08-16T08:17:01.865Z,20.20
2022-08-16T08:19:31.265Z,20.40
2022-08-16T08:22:01.858Z,20.50
2022-08-16T08:24:46.781Z,20.60
2022-08-16T08:27:22.526Z,20.60
2022-08-16T08:30:43.928Z,20.60
2022-08-16T08:32:58.831Z,20.70
2022-08-16T08:35:27.017Z,21.00
2022-08-16T08:37:56.534Z,21.20
2022-08-16T08:40:28.860Z,21.10
2022-08-16T08:43:00.244Z,21.20
2022-08-16T08:45:47.912Z,21.20
2022-08-16T08:48:34.342Z,21.40
2022-08-16T08:51:09.725Z,21.50
2022-08-16T08:54:07.025Z,21.60
2022-08-16T08:56:45.759Z,21.80
2022-08-16T08:59:27.818Z,22.00
2022-08-16T09:01:57.463Z,22.20
2022-08-16T09:04:27.118Z,22.30
2022-08-16T09:06:55.036Z,22.50
2022-08-16T09:09:23.669Z,22.50
2022-08-16T09:12:06.319Z,22.50
2022-08-16T09:14:56.644Z,22.60
2022-08-16T09:17:45.524Z,22.70
2022-08-16T09:20:16.667Z,22.80
2022-08-16T09:22:44.065Z,22.70
2022-08-16T09:25:26.467Z,22.80
2022-08-16T09:28:09.499Z,22.90
2022-08-16T09:30:45.177Z,22.80
2022-08-16T09:33:18.194Z,22.90
2022-08-16T09:35:46.618Z,22.90
2022-08-16T09:38:22.294Z,23.10
2022-08-16T09:41:00.574Z,23.30
2022-08-16T09:43:59.487Z,23.40
2022-08-16T09:46:44.418Z,23.60
2022-08-16T09:49:03.375Z,23.50
2022-08-16T09:51:37.273Z,23.50
2022-08-16T09:54:05.649Z,23.50
2022-08-16T09:56:35.319Z,23.60
2022-08-16T10:02:27.075Z,24.10
2022-08-16T10:04:54.329Z,24.30
2022-08-16T10:07:22.766Z,24.40
2022-08-16T10:09:54.010Z,24.60
2022-08-16T10:12:43.238Z,24.60
2022-08-16T10:15:16.234Z,24.60
2022-08-16T10:18:00.820Z,24.60
2022-08-16T10:20:38.084Z,24.60
2022-08-16T10:23:08.062Z,24.80
2022-08-16T10:27:16.983Z,24.70
2022-08-16T10:28:30.016Z,24.60
2022-08-16T10:30:59.753Z,24.70
2022-08-16T10:33:29.306Z,25.00
2022-08-16T10:36:03.162Z,25.00
2022-08-16T10:38:30.361Z,25.00
2022-08-16T10:41:00.403Z,25.10
2022-08-16T10:43:27.705Z,25.00
2022-08-16T10:46:00.890Z,25.10
2022-08-16T10:48:29.161Z,25.00
2022-08-16T10:51:00.354Z,25.10
2022-08-16T10:53:33.258Z,25.20
2022-08-16T10:56:02.738Z,25.10
2022-08-16T10:58:34.546Z,25.10
2022-08-16T11:03:57.387Z,25.30
2022-08-16T11:06:27.973Z,25.40
2022-08-16T11:14:33.524Z,25.70
2022-08-16T11:17:10.596Z,25.60
2022-08-16T11:22:46.967Z,26.00
2022-08-16T11:28:07.473Z,26.40
2022-08-16T11:30:38.902Z,26.70
2022-08-16T11:33:08.879Z,26.70
2022-08-16T11:36:22.203Z,26.90
2022-08-16T11:38:52.023Z,27.00
2022-08-16T11:41:11.397Z,27.20
2022-08-16T11:43:41.632Z,27.30
2022-08-16T11:46:44.753Z,27.40
2022-08-16T11:48:58.220Z,27.30
2022-08-16T11:51:24.942Z,27.40
2022-08-16T11:53:51.911Z,27.50
2022-08-16T11:56:19.810Z,27.60
2022-08-16T11:59:06.609Z,27.80
2022-08-16T12:01:55.163Z,27.70
2022-08-16T12:04:22.288Z,27.70
2022-08-16T12:06:50.051Z,27.80
2022-08-16T12:09:20.978Z,27.90
2022-08-16T12:11:53.200Z,28.10
2022-08-16T12:14:22.785Z,28.10
2022-08-16T12:16:55.672Z,28.20
2022-08-16T12:19:33.649Z,28.30
2022-08-16T12:22:01.433Z,28.50
2022-08-16T12:24:32.774Z,28.50
2022-08-16T12:27:00.142Z,28.40
2022-08-16T12:29:29.387Z,28.50
2022-08-16T12:32:01.510Z,28.60
2022-08-16T12:34:50.717Z,28.70
2022-08-16T12:37:19.680Z,28.90
2022-08-16T12:39:50.881Z,29.00
2022-08-16T12:42:19.404Z,28.90
2022-08-16T12:44:47.920Z,29.00
2022-08-16T12:47:33.250Z,29.30
2022-08-16T12:50:01.823Z,29.40
2022-08-16T12:52:32.823Z,29.50
2022-08-16T12:55:01.925Z,29.30
2022-08-16T12:57:36.385Z,29.40
2022-08-16T13:00:10.961Z,29.50
2022-08-16T13:02:37.837Z,29.70
2022-08-16T13:05:07.072Z,29.80
2022-08-16T13:07:37.583Z,29.90
2022-08-16T13:10:20.713Z,30.00
2022-08-16T13:13:01.055Z,30.00
2022-08-16T13:15:28.576Z,29.80
2022-08-16T13:17:55.793Z,29.70
2022-08-16T13:20:26.092Z,29.80
2022-08-16T13:22:58.938Z,29.90
2022-08-16T13:25:27.254Z,30.00
2022-08-16T13:28:03.054Z,30.00
2022-08-16T13:30:36.345Z,29.90
2022-08-16T13:33:10.854Z,30.00
2022-08-16T13:35:42.680Z,30.20
2022-08-16T13:38:21.608Z,30.20
2022-08-16T13:40:56.875Z,30.20
2022-08-16T13:43:26.460Z,30.20
2022-08-16T13:45:55.270Z,30.40
2022-08-16T13:48:25.177Z,30.50
2022-08-16T13:50:55.074Z,30.50
2022-08-16T13:53:25.038Z,30.30
2022-08-16T13:55:58.481Z,30.20
2022-08-16T13:58:35.431Z,30.10
2022-08-16T14:01:03.442Z,29.90
2022-08-16T14:03:30.643Z,29.70
2022-08-16T14:06:02.423Z,29.60
2022-08-16T14:08:29.222Z,29.40
2022-08-16T14:10:55.970Z,29.30
2022-08-16T14:13:22.858Z,29.00
2022-08-16T14:15:50.150Z,29.00
2022-08-16T14:18:20.369Z,28.90
2022-08-16T14:20:48.678Z,28.90
2022-08-16T14:23:23.690Z,29.00
2022-08-16T14:25:53.784Z,28.90
2022-08-16T14:28:21.915Z,28.90
2022-08-16T14:30:50.712Z,28.80
2022-08-16T14:33:18.643Z,28.80
2022-08-16T14:35:50.083Z,28.80
2022-08-16T14:38:23.743Z,29.00
2022-08-16T14:40:55.479Z,28.80
2022-08-16T14:43:24.804Z,28.70
2022-08-16T14:45:54.590Z,28.70
2022-08-16T14:48:26.363Z,28.70
2022-08-16T14:50:54.708Z,28.80
2022-08-16T14:53:23.069Z,28.80
2022-08-16T14:55:49.761Z,28.70
2022-08-16T14:58:19.369Z,28.70
2022-08-16T15:00:47.876Z,28.80
2022-08-16T15:03:18.906Z,28.80
2022-08-16T15:05:49.110Z,28.70
2022-08-16T15:08:21.267Z,28.80
2022-08-16T15:11:03.142Z,28.90
2022-08-16T15:13:29.857Z,29.00
2022-08-16T15:16:02.288Z,29.00
2022-08-16T15:18:31.942Z,28.90
2022-08-16T15:21:03.876Z,28.90
2022-08-16T15:23:33.653Z,28.90
2022-08-16T15:26:02.752Z,28.80
2022-08-16T15:28:33.311Z,28.80
2022-08-16T15:31:03.689Z,28.80
2022-08-16T15:33:33.235Z,28.80
2022-08-16T15:36:00.251Z,28.80
2022-08-16T15:38:54.668Z,28.80
2022-08-16T15:41:38.720Z,28.80
2022-08-16T15:44:10.709Z,28.80
2022-08-16T15:46:56.292Z,28.80
2022-08-16T15:49:34.538Z,28.80
2022-08-16T15:52:20.513Z,28.80
2022-08-16T15:54:53.172Z,28.80
2022-08-16T15:57:24.488Z,28.70
2022-08-16T15:59:56.457Z,28.70
2022-08-16T16:02:38.493Z,28.60
2022-08-16T16:05:09.780Z,28.50
2022-08-16T16:07:40.896Z,28.60
2022-08-16T16:10:29.936Z,28.60
2022-08-16T16:12:59.645Z,28.70
2022-08-16T16:15:29.634Z,28.90
2022-08-16T16:17:57.273Z,29.20
2022-08-16T16:20:27.402Z,30.00
2022-08-16T16:23:10.643Z,30.70
2022-08-16T16:25:39.624Z,31.50
2022-08-16T16:28:46.361Z,32.00
2022-08-16T16:31:00.153Z,32.80
2022-08-16T16:33:28.890Z,33.60
2022-08-16T16:35:58.237Z,33.90
2022-08-16T16:38:28.699Z,33.70
2022-08-16T16:40:56.044Z,33.30
2022-08-16T16:43:25.556Z,33.20
2022-08-16T16:45:59.027Z,33.00
2022-08-16T16:48:29.641Z,33.30
2022-08-16T16:51:09.594Z,33.30
2022-08-16T16:53:42.830Z,33.30
2022-08-16T16:56:20.554Z,33.20
2022-08-16T16:58:57.571Z,33.00
2022-08-16T17:01:56.642Z,33.20
2022-08-16T17:04:27.337Z,33.60
2022-08-16T17:06:59.387Z,33.90
2022-08-16T17:09:26.134Z,34.30
2022-08-16T17:11:55.382Z,34.70
2022-08-16T17:14:33.888Z,34.70
2022-08-16T17:17:09.090Z,35.00
2022-08-16T17:19:40.766Z,34.80
2022-08-16T17:22:15.132Z,34.70
2022-08-16T17:24:44.907Z,34.80
2022-08-16T17:29:59.069Z,32.80
2022-08-16T17:32:44.316Z,31.10
2022-08-16T17:35:18.325Z,29.60
2022-08-16T17:37:51.790Z,28.50
2022-08-16T17:39:26.770Z,34.10
2022-08-16T17:40:46.914Z,27.80
2022-08-16T17:43:19.240Z,26.90
2022-08-16T17:45:46.429Z,26.40
2022-08-16T17:48:13.414Z,26.00
2022-08-16T17:50:41.652Z,25.60
2022-08-16T17:53:09.606Z,25.30
2022-08-16T17:55:38.943Z,24.90
2022-08-16T17:58:10.527Z,24.70
2022-08-16T18:00:56.470Z,24.50
2022-08-16T18:04:03.166Z,24.30
2022-08-16T18:06:23.790Z,24.10
2022-08-16T18:08:57.923Z,23.90
2022-08-16T18:11:30.084Z,23.70
2022-08-16T18:13:59.805Z,23.60
2022-08-16T18:16:26.854Z,23.50
2022-08-16T18:18:53.665Z,23.40
2022-08-16T18:21:39.147Z,23.40
2022-08-16T18:24:06.078Z,23.30
2022-08-16T18:26:33.147Z,23.20
2022-08-16T18:28:59.770Z,23.10
2022-08-16T18:31:26.682Z,22.90
2022-08-16T18:33:54.720Z,22.70
2022-08-16T18:36:23.257Z,22.60
2022-08-16T18:38:51.266Z,22.40
2022-08-16T18:41:19.265Z,22.30
2022-08-16T18:44:22.376Z,22.20
2022-08-16T18:46:32.717Z,22.00
2022-08-16T18:48:59.645Z,22.20
2022-08-16T18:51:26.330Z,22.20
2022-08-16T18:53:53.413Z,22.10
2022-08-16T18:56:20.112Z,22.10
2022-08-16T18:58:46.853Z,22.00
2022-08-16T19:01:13.671Z,21.90
2022-08-16T19:03:40.518Z,21.80
2022-08-16T19:06:13.604Z,21.80
2022-08-16T19:08:43.714Z,21.80
2022-08-16T19:11:19.009Z,21.80
2022-08-16T19:13:46.623Z,21.70
2022-08-16T19:16:14.247Z,21.60
2022-08-16T19:18:41.738Z,21.60
2022-08-16T19:21:11.388Z,21.50
2022-08-16T19:23:42.766Z,21.50
2022-08-16T19:26:24.383Z,21.40
2022-08-16T19:28:59.612Z,21.30
2022-08-16T19:31:33.259Z,21.30
2022-08-16T19:34:00.669Z,21.20
2022-08-16T19:36:35.954Z,21.20
2022-08-16T19:39:16.547Z,21.10
2022-08-16T19:41:52.110Z,21.00
2022-08-16T19:44:21.658Z,21.00
2022-08-16T19:46:49.130Z,20.90
2022-08-16T19:49:16.745Z,20.80
2022-08-16T19:51:47.499Z,20.80
2022-08-16T19:54:14.482Z,20.70
2022-08-16T19:56:41.186Z,20.70
2022-08-16T19:59:39.605Z,20.60
2022-08-16T20:01:54.865Z,20.60
2022-08-16T20:04:22.947Z,20.50
2022-08-16T20:06:52.621Z,20.40
2022-08-16T20:09:20.222Z,20.40
2022-08-16T20:11:48.160Z,20.40
2022-08-16T20:14:19.286Z,20.40
2022-08-16T20:16:57.260Z,20.30
2022-08-16T20:19:27.068Z,20.30
2022-08-16T20:21:54.006Z,20.20
2022-08-16T20:24:34.224Z,20.20
2022-08-16T20:27:03.621Z,20.10
2022-08-16T20:29:30.978Z,20.10
2022-08-16T20:31:57.816Z,20.10
2022-08-16T20:34:24.658Z,20.00
2022-08-16T20:36:51.365Z,20.00
2022-08-16T20:39:18.073Z,20.00
2022-08-16T20:41:45.174Z,20.00
2022-08-16T20:44:12.488Z,19.90
2022-08-16T20:46:40.056Z,19.80
2022-08-16T20:49:09.019Z,19.80
2022-08-16T20:51:46.780Z,19.70
2022-08-16T20:54:16.855Z,19.70
2022-08-16T20:56:43.558Z,19.70
2022-08-16T20:59:10.267Z,19.70
2022-08-16T21:01:46.689Z,19.80
2022-08-16T21:04:19.437Z,19.80
2022-08-16T21:06:54.335Z,19.80
2022-08-16T21:09:23.678Z,19.70
2022-08-16T21:11:52.996Z,19.60
2022-08-16T21:14:19.801Z,19.60
2022-08-16T21:16:46.535Z,19.60
2022-08-16T21:19:13.483Z,19.60
2022-08-16T21:21:40.307Z,19.50
2022-08-16T21:24:07.069Z,19.50
2022-08-16T21:26:38.981Z,19.40
2022-08-16T21:29:07.708Z,19.50
2022-08-16T21:31:40.266Z,19.40
2022-08-16T21:34:08.236Z,19.40
2022-08-16T21:36:36.447Z,19.40
2022-08-16T21:39:05.754Z,19.30
2022-08-16T21:41:33.170Z,19.30
2022-08-16T21:43:59.860Z,19.30
2022-08-16T21:46:26.572Z,19.30
2022-08-16T21:48:53.302Z,19.30
2022-08-16T21:51:20.570Z,19.30
2022-08-16T21:53:47.363Z,19.30
2022-08-16T21:56:17.266Z,19.30
2022-08-16T21:58:45.614Z,19.30
2022-08-16T22:01:12.840Z,19.20
2022-08-16T22:03:39.464Z,19.20
2022-08-16T22:06:13.591Z,19.10
2022-08-16T22:08:49.858Z,19.00
2022-08-16T22:11:24.570Z,19.00
2022-08-16T22:13:58.626Z,18.90
2022-08-16T22:16:32.625Z,18.90
2022-08-16T22:19:00.182Z,18.80
2022-08-16T22:21:27.039Z,18.80
2022-08-16T22:23:56.866Z,18.80
2022-08-16T22:26:32.029Z,18.80
2022-08-16T22:29:06.500Z,18.70
2022-08-16T22:31:34.855Z,18.60
2022-08-16T22:34:02.322Z,18.40
2022-08-16T22:36:31.005Z,18.30
2022-08-16T22:38:59.690Z,18.30
2022-08-16T22:41:31.926Z,18.20
2022-08-16T22:44:00.150Z,18.20
2022-08-16T22:46:26.895Z,18.20
2022-08-16T22:48:54.056Z,18.10
2022-08-16T22:51:23.453Z,18.10
2022-08-16T22:53:51.063Z,18.00
2022-08-16T22:56:17.924Z,18.00
2022-08-16T22:58:45.679Z,18.00
2022-08-16T23:01:13.990Z,18.00
2022-08-16T23:03:41.075Z,18.00
2022-08-16T23:06:10.245Z,18.00
2022-08-16T23:08:40.980Z,18.00
2022-08-16T23:11:25.349Z,17.90
2022-08-16T23:13:54.691Z,17.90
2022-08-16T23:16:24.892Z,17.90
2022-08-16T23:19:00.163Z,17.90
2022-08-16T23:21:27.422Z,17.80
2022-08-16T23:23:54.191Z,17.80
2022-08-16T23:26:44.773Z,17.80
2022-08-16T23:29:22.206Z,17.80
2022-08-16T23:31:58.743Z,17.70
2022-08-16T23:34:27.407Z,17.70
2022-08-16T23:36:54.762Z,17.70
2022-08-16T23:39:22.034Z,17.60
2022-08-16T23:41:48.740Z,17.60
2022-08-16T23:44:56.185Z,17.50
2022-08-16T23:47:02.325Z,17.50
2022-08-16T23:49:58.507Z,17.50
2022-08-16T23:52:18.007Z,17.50
2022-08-16T23:54:44.713Z,17.50
2022-08-16T23:57:11.843Z,17.50
2022-08-16T23:59:53.458Z,17.40
